Airfield :







YOU CAN JOIN US ON...

 
LOGIN :

Register | Disclaimer

   EN    FR    IT 

 









Legend :    VFR   Marginal VFR   IFR   Intensive IFR   Very Intensive IFR
Visi :
Ceiling :
>= 8 km
>= 3000ft
5 to 8 km
1000 to 3000 ft
1500m to 5 km
500 to 1000 ft
800 to 1500m
200 to 500 ft
< 800m
< 200 ft
Symbols :   Thunderstorms  Fog  Heavy snow  Heavy precipitations  Wind > 20 kt






- Airport Elevation : 74 ft
- IATA code : STX


TISX - Henri E Rohlsen

CURRENT METAR :
  • 312153Z 07010G18KT 10SM SCT028 28/22 A2995 RMK AO2 SLP140 T02830222

EXPIRED METARs :
  • 312053Z 09014KT 10SM SCT035 29/22 A2993 RMK AO2 SLP134 T02940217 55001
  • 311953Z 08014G25KT 10SM SCT030 SCT036 30/22 A2992 RMK AO2 SLP129 T03000222
  • 311853Z 11017KT 10SM SCT038 31/23 A2993 RMK AO2 PK WND 10026/1800 SLP133 T03110228

TAF TISX
Valid from the 31 at 18:00 until the 01 at 18:00 UTC


311720Z 3118/0118 09016G25KT P6SM SCT030
FM312300 07010KT P6SM FEW030
FM011300 09017KT P6SM FEW030 FEW060
TJZS FIR / North America



MET'MAP, your aeronautical weather chart ! - Copyright ORBIFLY December 2007 - Disclaimer

ORBIFLY MET'MAP TEAM :

Programming & Development : Alexandra Zaïnal
Concept & original design : Baudouin d'Aumeries
Assistance for programming : Marc-Olivier Méhu
Technical & hardware support : Manuel Goepfert

Contact : metmap@orbifly.com




SOURCES & CREDITS :

   NOAA